Time;durP1;ratioP1;P1;durP2;ratioP2;P2;SDS_P1;SDS_P2;PMS_P1;PMS_P2;Temp;Humidity;BMP_temperature;BMP_pressure;BME280_temperature;BME280_humidity;BME280_pressure;Samples;Min_cycle;Max_cycle;Signal;HPM_P1;HPM_P2
2022/03/19 00:01:11;;;;;;;15.97;6.90;;;6.80;1.00;;;;;;6282229;28;20319;-55
2022/03/19 00:04:13;;;;;;;9.60;6.43;;;6.70;1.00;;;;;;6279488;28;20237;-54
2022/03/19 00:07:17;;;;;;;8.90;7.17;;;6.90;1.00;;;;;;6283849;28;20614;-55
2022/03/19 00:10:21;;;;;;;12.70;7.13;;;6.50;1.00;;;;;;6277501;28;20337;-55
2022/03/19 00:13:24;;;;;;;9.90;6.43;;;6.80;1.00;;;;;;6277736;28;20248;-56
2022/03/19 00:16:28;;;;;;;11.67;7.17;;;6.50;1.00;;;;;;6287056;28;20709;-54
2022/03/19 00:19:31;;;;;;;6.87;6.20;;;6.40;1.00;;;;;;6278426;28;20225;-54
2022/03/19 00:22:34;;;;;;;10.67;6.60;;;6.60;1.00;;;;;;6286510;28;20324;-56
2022/03/19 00:25:38;;;;;;;16.13;7.07;;;6.30;1.00;;;;;;6287996;28;20323;-55
2022/03/19 00:28:41;;;;;;;11.53;5.90;;;6.30;1.00;;;;;;6273519;28;20236;-54
2022/03/19 00:31:45;;;;;;;13.80;7.10;;;6.30;1.00;;;;;;6287028;28;20761;-55
2022/03/19 00:34:48;;;;;;;11.73;7.50;;;6.20;1.00;;;;;;6285019;28;20245;-55
2022/03/19 00:37:53;;;;;;;15.77;6.67;;;6.20;1.00;;;;;;6279989;28;20230;-55
2022/03/19 00:40:56;;;;;;;16.47;7.40;;;6.10;1.00;;;;;;6285627;28;20233;-54
2022/03/19 00:43:58;;;;;;;17.57;7.37;;;6.10;1.00;;;;;;6281515;28;20322;-55
2022/03/19 00:47:03;;;;;;;8.70;6.77;;;6.10;1.00;;;;;;6285723;28;20472;-55
2022/03/19 00:50:08;;;;;;;16.33;7.23;;;6.00;1.00;;;;;;6273402;28;20238;-55
2022/03/19 00:53:10;;;;;;;10.27;6.87;;;6.00;1.00;;;;;;6270979;28;20234;-55
2022/03/19 00:56:13;;;;;;;16.73;6.70;;;6.10;1.00;;;;;;6286909;28;20235;-55
2022/03/19 00:59:16;;;;;;;11.73;6.57;;;5.90;1.00;;;;;;6268435;28;20616;-54
2022/03/19 01:02:20;;;;;;;13.37;7.07;;;6.00;1.00;;;;;;6283822;28;20679;-55
2022/03/19 01:05:24;;;;;;;9.47;6.27;;;5.80;1.00;;;;;;6286276;28;20367;-54
2022/03/19 01:08:27;;;;;;;8.67;6.27;;;5.60;1.00;;;;;;6276761;28;20231;-55
2022/03/19 01:11:30;;;;;;;11.67;6.63;;;5.80;1.00;;;;;;6285499;28;20241;-56
2022/03/19 01:14:32;;;;;;;12.10;6.50;;;5.80;1.00;;;;;;6286023;28;20331;-55
2022/03/19 01:17:37;;;;;;;9.00;6.37;;;5.70;1.00;;;;;;6282996;28;20237;-54
2022/03/19 01:20:40;;;;;;;10.20;6.40;;;5.90;1.00;;;;;;6285284;28;20322;-54
2022/03/19 01:23:43;;;;;;;10.47;6.17;;;5.90;1.00;;;;;;6284890;28;20244;-56
2022/03/19 01:26:45;;;;;;;17.77;6.50;;;5.80;1.00;;;;;;6274897;28;20712;-55
2022/03/19 01:29:48;;;;;;;15.70;6.70;;;5.80;1.00;;;;;;6274339;28;20378;-55
2022/03/19 01:32:52;;;;;;;8.90;6.33;;;5.70;1.00;;;;;;6280030;28;20229;-55
2022/03/19 01:35:55;;;;;;;18.73;6.40;;;5.70;1.00;;;;;;6280841;28;20233;-56
2022/03/19 01:38:58;;;;;;;14.20;6.57;;;5.40;1.00;;;;;;6278208;28;20410;-55
2022/03/19 01:42:00;;;;;;;13.77;6.77;;;5.30;1.00;;;;;;6279874;28;20736;-56
2022/03/19 01:45:06;;;;;;;12.87;6.33;;;5.30;1.00;;;;;;6283982;28;20373;-53
2022/03/19 01:48:09;;;;;;;12.07;5.93;;;5.30;1.00;;;;;;6279311;28;20250;-54
2022/03/19 01:51:12;;;;;;;15.43;6.87;;;5.30;1.00;;;;;;6269189;28;20252;-54
2022/03/19 01:54:15;;;;;;;17.00;7.23;;;5.30;1.00;;;;;;6282988;28;20269;-55
2022/03/19 01:57:20;;;;;;;11.90;6.80;;;5.60;1.00;;;;;;6282437;28;20233;-54
2022/03/19 02:00:25;;;;;;;15.43;7.80;;;5.20;1.00;;;;;;6280867;28;20234;-55
2022/03/19 02:03:30;;;;;;;13.47;6.97;;;5.30;1.00;;;;;;6281962;28;20290;-55
2022/03/19 02:06:33;;;;;;;11.30;6.60;;;5.10;1.00;;;;;;6282955;28;20245;-55
2022/03/19 02:09:36;;;;;;;11.77;7.13;;;5.60;1.00;;;;;;6278608;28;20370;-55
2022/03/19 02:12:40;;;;;;;11.53;7.07;;;5.30;1.00;;;;;;6278208;28;20312;-55
2022/03/19 02:15:43;;;;;;;11.97;6.83;;;5.20;1.00;;;;;;6282823;28;20237;-54
2022/03/19 02:18:47;;;;;;;18.23;7.77;;;4.60;1.00;;;;;;6266383;28;20351;-53
2022/03/19 02:21:51;;;;;;;12.93;7.20;;;5.20;1.00;;;;;;6270564;28;20723;-55
2022/03/19 02:28:17;;;;;;;10.23;6.87;;;5.10;1.00;;;;;;6268585;28;20748;-54
2022/03/19 02:31:20;;;;;;;12.10;6.60;;;5.20;1.00;;;;;;6279962;28;20245;-55
2022/03/19 02:34:23;;;;;;;13.53;7.10;;;5.20;1.00;;;;;;6270717;28;20358;-54
2022/03/19 02:37:26;;;;;;;9.53;6.90;;;5.00;1.00;;;;;;6279612;28;20441;-55
2022/03/19 02:40:30;;;;;;;11.10;7.03;;;5.20;1.00;;;;;;6277206;28;20324;-55
2022/03/19 02:43:33;;;;;;;14.70;7.20;;;5.20;1.00;;;;;;6279480;28;20322;-54
2022/03/19 02:46:40;;;;;;;9.37;6.50;;;5.00;1.00;;;;;;6283790;28;20248;-55
2022/03/19 02:49:42;;;;;;;12.33;6.70;;;5.10;1.00;;;;;;6273843;28;20251;-55
2022/03/19 02:52:45;;;;;;;16.67;7.20;;;5.20;1.00;;;;;;6276096;28;20309;-55
2022/03/19 02:55:49;;;;;;;14.37;7.33;;;5.00;1.00;;;;;;6283232;28;20299;-54
2022/03/19 02:58:52;;;;;;;13.33;7.13;;;5.00;1.00;;;;;;6273873;28;20244;-55
2022/03/19 03:01:57;;;;;;;15.87;7.63;;;4.90;1.00;;;;;;6279530;28;20233;-55
2022/03/19 03:05:00;;;;;;;10.60;7.27;;;5.00;1.00;;;;;;6281409;28;20424;-60
2022/03/19 03:08:03;;;;;;;14.07;7.33;;;4.80;1.00;;;;;;6275318;28;20328;-53
2022/03/19 03:11:07;;;;;;;10.97;7.13;;;4.90;1.00;;;;;;6278711;28;20229;-54
2022/03/19 03:14:10;;;;;;;16.30;7.40;;;5.00;1.00;;;;;;6274433;28;20241;-55
2022/03/19 03:17:13;;;;;;;19.87;7.37;;;4.70;1.00;;;;;;6280536;28;20290;-56
2022/03/19 03:20:16;;;;;;;16.40;7.53;;;4.60;1.00;;;;;;6276318;28;20248;-54
2022/03/19 03:23:19;;;;;;;15.30;7.20;;;4.80;1.00;;;;;;6278615;28;20321;-56
2022/03/19 03:26:23;;;;;;;19.67;7.80;;;4.80;1.00;;;;;;6286818;28;20594;-54
2022/03/19 03:29:26;;;;;;;12.87;7.33;;;4.90;1.00;;;;;;6283847;28;20348;-57
2022/03/19 03:32:28;;;;;;;10.63;7.00;;;4.70;1.00;;;;;;6278736;28;20323;-53
2022/03/19 03:35:31;;;;;;;8.97;6.97;;;4.50;1.00;;;;;;6280721;28;21761;-53
2022/03/19 03:38:34;;;;;;;11.17;7.23;;;4.80;1.00;;;;;;6277309;28;20680;-54
2022/03/19 03:41:38;;;;;;;9.97;7.70;;;4.60;1.00;;;;;;6285695;28;20233;-53
2022/03/19 03:44:42;;;;;;;14.77;7.30;;;4.50;1.00;;;;;;6285186;28;20779;-54
2022/03/19 03:47:44;;;;;;;14.63;7.30;;;4.40;1.00;;;;;;6267951;28;20233;-55
2022/03/19 03:50:49;;;;;;;16.77;7.10;;;4.40;1.00;;;;;;6286151;28;20765;-55
2022/03/19 03:53:52;;;;;;;12.70;7.17;;;4.20;1.00;;;;;;6285888;28;20337;-57
2022/03/19 03:56:56;;;;;;;16.40;7.90;;;4.10;1.00;;;;;;6284721;28;20255;-55
2022/03/19 03:59:59;;;;;;;16.90;7.80;;;4.30;1.00;;;;;;6277937;28;20233;-53
2022/03/19 04:03:03;;;;;;;17.97;7.43;;;4.30;1.00;;;;;;6282033;28;20362;-54
2022/03/19 04:06:06;;;;;;;13.83;7.43;;;4.20;1.00;;;;;;6277509;28;20230;-54
2022/03/19 04:09:09;;;;;;;17.43;7.40;;;4.30;1.00;;;;;;6275089;28;20485;-55
2022/03/19 04:12:14;;;;;;;15.00;7.67;;;4.10;1.00;;;;;;6287353;28;20824;-54
2022/03/19 04:15:18;;;;;;;17.03;7.40;;;4.00;1.00;;;;;;6282040;28;20399;-54
2022/03/19 04:18:21;;;;;;;12.90;7.03;;;3.90;1.00;;;;;;6268271;28;20283;-55
2022/03/19 04:21:23;;;;;;;18.70;7.40;;;4.00;1.00;;;;;;6284082;28;20328;-55
2022/03/19 04:24:26;;;;;;;18.27;7.47;;;3.80;1.00;;;;;;6274314;28;20311;-55
2022/03/19 04:27:30;;;;;;;17.17;7.60;;;3.90;1.00;;;;;;6262550;28;20269;-55
2022/03/19 04:30:33;;;;;;;10.70;6.57;;;3.90;1.00;;;;;;6280458;28;20305;-55
2022/03/19 04:33:36;;;;;;;16.43;7.50;;;3.70;1.00;;;;;;6267369;28;20725;-53
2022/03/19 04:36:38;;;;;;;18.23;7.00;;;3.80;1.00;;;;;;6280556;28;20902;-55
2022/03/19 04:39:41;;;;;;;13.23;7.90;;;3.60;1.00;;;;;;6279778;28;20315;-54
2022/03/19 04:42:45;;;;;;;12.37;6.80;;;3.60;1.00;;;;;;6281131;28;20313;-54
2022/03/19 04:45:48;;;;;;;10.50;6.60;;;3.80;1.00;;;;;;6278241;28;20734;-54
2022/03/19 04:48:52;;;;;;;14.77;7.20;;;3.60;1.00;;;;;;6271629;28;20483;-56
2022/03/19 04:51:55;;;;;;;14.33;7.27;;;3.60;1.00;;;;;;6273769;28;20236;-55
2022/03/19 04:55:00;;;;;;;11.40;7.03;;;3.90;1.00;;;;;;6280849;28;20350;-55
2022/03/19 04:58:05;;;;;;;12.97;6.87;;;3.60;1.00;;;;;;6282645;28;20714;-55
2022/03/19 05:01:08;;;;;;;17.17;7.87;;;3.70;1.00;;;;;;6277818;28;20752;-55
2022/03/19 05:04:11;;;;;;;9.13;6.80;;;3.60;1.00;;;;;;6276146;28;20237;-54
2022/03/19 05:07:14;;;;;;;15.77;6.57;;;3.60;1.00;;;;;;6275903;28;20364;-54
2022/03/19 05:13:38;;;;;;;12.57;6.90;;;3.70;1.00;;;;;;6277142;28;20304;-55
2022/03/19 05:16:41;;;;;;;12.40;6.90;;;3.60;1.00;;;;;;6280938;28;20622;-53
2022/03/19 05:19:43;;;;;;;13.30;6.57;;;3.30;1.00;;;;;;6279017;28;20604;-54
2022/03/19 05:22:46;;;;;;;14.77;7.10;;;3.50;1.00;;;;;;6280422;28;20366;-54
2022/03/19 05:25:49;;;;;;;12.17;6.93;;;3.10;1.00;;;;;;6275917;28;20317;-54
2022/03/19 05:28:54;;;;;;;12.23;7.53;;;3.50;1.00;;;;;;6275322;28;20229;-59
2022/03/19 05:32:18;;;;;;;11.83;6.30;;;3.70;1.00;;;;;;6267196;28;20618;-59
2022/03/19 05:35:22;;;;;;;11.97;6.57;;;3.40;1.00;;;;;;6269669;28;20241;-55
2022/03/19 05:38:25;;;;;;;11.10;6.70;;;3.80;1.00;;;;;;6272736;28;20225;-55
2022/03/19 05:41:28;;;;;;;9.53;6.50;;;3.50;1.00;;;;;;6279093;28;20323;-55
2022/03/19 05:44:34;;;;;;;16.50;7.30;;;3.70;1.00;;;;;;6279536;28;20245;-54
2022/03/19 05:47:38;;;;;;;9.90;6.47;;;3.60;1.00;;;;;;6271290;28;20379;-55
2022/03/19 05:50:40;;;;;;;16.17;7.03;;;3.60;1.00;;;;;;6276140;28;20237;-54
2022/03/19 05:53:44;;;;;;;13.60;6.70;;;3.50;1.00;;;;;;6268468;28;20238;-54
2022/03/19 05:56:47;;;;;;;14.00;6.60;;;3.70;1.00;;;;;;6281508;28;20233;-56
2022/03/19 05:59:51;;;;;;;8.80;5.83;;;3.70;1.00;;;;;;6278351;28;20240;-55
2022/03/19 06:02:53;;;;;;;13.20;6.90;;;3.50;1.00;;;;;;6279857;28;20374;-55
2022/03/19 06:05:56;;;;;;;8.90;6.30;;;3.70;1.00;;;;;;6283657;28;20524;-54
2022/03/19 06:08:59;;;;;;;11.53;6.63;;;3.60;1.00;;;;;;6276950;28;20253;-54
2022/03/19 06:12:02;;;;;;;11.30;6.50;;;3.80;1.00;;;;;;6277864;28;20276;-54
2022/03/19 06:15:07;;;;;;;11.40;6.40;;;3.90;1.00;;;;;;6267549;28;20237;-53
2022/03/19 06:18:10;;;;;;;10.50;6.50;;;3.90;1.00;;;;;;6272815;28;20872;-55
2022/03/19 06:21:13;;;;;;;11.50;6.30;;;4.00;1.00;;;;;;6284262;28;20320;-54
2022/03/19 06:24:15;;;;;;;7.93;6.00;;;4.00;1.00;;;;;;6279506;28;20324;-54
2022/03/19 06:27:18;;;;;;;9.70;6.37;;;3.90;1.00;;;;;;6279054;28;20233;-61
2022/03/19 06:30:23;;;;;;;13.20;6.37;;;4.10;1.00;;;;;;6276097;28;20291;-54
2022/03/19 06:33:26;;;;;;;7.80;5.70;;;4.30;1.00;;;;;;6275519;28;20242;-55
2022/03/19 06:39:54;;;;;;;12.00;6.40;;;4.10;1.00;;;;;;6278789;28;20263;-54
2022/03/19 06:42:57;;;;;;;12.03;5.67;;;4.30;1.00;;;;;;6270553;28;20780;-53
2022/03/19 06:46:01;;;;;;;7.13;6.00;;;4.40;1.00;;;;;;6279338;28;20243;-55
2022/03/19 06:49:04;;;;;;;10.00;6.43;;;4.50;1.00;;;;;;6281480;28;20324;-55
2022/03/19 06:52:07;;;;;;;8.27;5.23;;;4.60;1.00;;;;;;6281856;28;20255;-54
2022/03/19 06:55:10;;;;;;;7.90;5.40;;;4.70;1.00;;;;;;6282247;28;20370;-54
2022/03/19 06:58:13;;;;;;;9.57;5.83;;;5.00;1.00;;;;;;6274010;28;20871;-54
2022/03/19 07:01:17;;;;;;;8.10;5.17;;;5.10;1.00;;;;;;6285719;28;20237;-56
2022/03/19 07:04:20;;;;;;;13.80;5.73;;;5.30;1.00;;;;;;6280707;28;20237;-55
2022/03/19 07:07:23;;;;;;;8.40;5.40;;;5.40;1.00;;;;;;6278808;28;20247;-54
2022/03/19 07:10:27;;;;;;;12.10;5.23;;;5.40;1.00;;;;;;6285109;28;20314;-55
2022/03/19 07:13:30;;;;;;;5.47;4.77;;;5.00;1.00;;;;;;6285515;28;20598;-55
2022/03/19 07:16:34;;;;;;;7.70;5.30;;;5.50;1.00;;;;;;6278458;28;20312;-55
2022/03/19 07:19:37;;;;;;;9.50;5.40;;;5.80;1.00;;;;;;6278604;28;20230;-55
2022/03/19 07:22:47;;;;;;;8.23;5.07;;;6.40;1.00;;;;;;6283681;28;20359;-55
2022/03/19 07:25:50;;;;;;;9.60;5.07;;;6.30;1.00;;;;;;6283634;28;20233;-55
2022/03/19 07:28:52;;;;;;;7.60;5.10;;;6.40;1.00;;;;;;6278336;28;20315;-55
2022/03/19 07:31:56;;;;;;;6.70;5.17;;;6.50;1.00;;;;;;6285315;28;20608;-56
2022/03/19 07:35:00;;;;;;;12.33;4.93;;;6.60;1.00;;;;;;6273668;28;20469;-54
2022/03/19 07:38:04;;;;;;;8.77;4.87;;;6.50;1.00;;;;;;6278005;28;20393;-55
2022/03/19 07:44:29;;;;;;;6.17;4.37;;;6.60;1.00;;;;;;6277633;28;20376;-55
2022/03/19 07:47:34;;;;;;;11.67;4.67;;;6.70;1.00;;;;;;6280146;28;20363;-54
2022/03/19 07:50:38;;;;;;;11.33;4.60;;;6.50;1.00;;;;;;6277267;28;20718;-55
2022/03/19 07:53:41;;;;;;;11.50;4.30;;;6.80;1.00;;;;;;6283441;28;20275;-55
2022/03/19 07:56:43;;;;;;;5.20;4.53;;;6.70;1.00;;;;;;6274141;28;20971;-55
2022/03/19 07:59:46;;;;;;;5.40;4.03;;;6.80;1.00;;;;;;6262638;28;20244;-52
2022/03/19 08:02:51;;;;;;;6.33;4.40;;;6.80;1.00;;;;;;6282291;28;20423;-54
2022/03/19 08:05:55;;;;;;;9.47;4.93;;;6.90;1.00;;;;;;6281224;28;20384;-55
2022/03/19 08:08:57;;;;;;;10.17;5.20;;;7.00;1.00;;;;;;6273707;28;20240;-55
2022/03/19 08:12:01;;;;;;;8.13;4.10;;;7.10;1.00;;;;;;6285757;28;20466;-56
2022/03/19 08:15:05;;;;;;;5.47;4.70;;;7.10;1.00;;;;;;6277640;28;20241;-55
2022/03/19 08:18:12;;;;;;;6.00;4.43;;;7.20;1.00;;;;;;6278638;28;20726;-55
2022/03/19 08:21:14;;;;;;;6.03;4.27;;;7.30;1.00;;;;;;6273931;28;20260;-53
2022/03/19 08:24:17;;;;;;;5.53;4.77;;;7.50;1.00;;;;;;6276591;28;20280;-54
2022/03/19 08:27:20;;;;;;;4.30;3.90;;;7.50;1.00;;;;;;6282117;28;20641;-55
2022/03/19 08:30:23;;;;;;;10.60;4.83;;;7.60;1.00;;;;;;6279167;28;20307;-55
2022/03/19 08:33:27;;;;;;;9.20;4.33;;;7.70;1.00;;;;;;6273706;28;20317;-57
2022/03/19 08:36:30;;;;;;;6.53;4.83;;;7.70;1.00;;;;;;6283445;28;20259;-54
2022/03/19 08:42:53;;;;;;;6.93;4.43;;;7.90;1.00;;;;;;6277254;28;20691;-55
2022/03/19 08:45:55;;;;;;;11.10;4.87;;;8.00;1.00;;;;;;6281866;28;20467;-54
2022/03/19 08:49:00;;;;;;;6.13;4.10;;;8.10;1.00;;;;;;6279202;28;20241;-54
2022/03/19 08:52:02;;;;;;;7.13;4.13;;;8.30;1.00;;;;;;6275226;28;20225;-53
2022/03/19 08:55:06;;;;;;;4.57;4.17;;;8.50;1.00;;;;;;6282608;28;20247;-54
2022/03/19 08:58:09;;;;;;;6.17;4.27;;;8.70;1.00;;;;;;6280460;28;20230;-55
2022/03/19 09:01:12;;;;;;;7.37;4.40;;;8.90;1.00;;;;;;6266851;28;20225;-56
2022/03/19 09:04:17;;;;;;;5.87;4.10;;;9.10;1.00;;;;;;6274223;28;20303;-54
2022/03/19 09:07:20;;;;;;;13.07;4.93;;;9.20;1.00;;;;;;6269931;28;20866;-55
2022/03/19 09:10:22;;;;;;;7.50;4.03;;;9.40;1.00;;;;;;6279403;28;20446;-57
2022/03/19 09:13:25;;;;;;;6.80;4.10;;;9.40;1.00;;;;;;6280323;28;20319;-55
2022/03/19 09:16:28;;;;;;;6.83;3.90;;;9.40;1.00;;;;;;6281933;28;20572;-55
2022/03/19 09:19:32;;;;;;;7.93;4.43;;;9.60;1.00;;;;;;6283316;28;20383;-56
2022/03/19 09:22:35;;;;;;;6.47;4.13;;;9.60;1.00;;;;;;6283583;28;20244;-55
2022/03/19 09:25:38;;;;;;;7.40;4.07;;;9.80;1.00;;;;;;6282919;28;20241;-55
2022/03/19 09:28:41;;;;;;;13.67;4.77;;;9.90;1.00;;;;;;6275922;28;20267;-55
2022/03/19 09:31:44;;;;;;;5.47;3.70;;;10.00;1.00;;;;;;6278654;28;20235;-56
2022/03/19 09:34:51;;;;;;;8.67;4.20;;;10.10;1.00;;;;;;6275520;28;20241;-56
2022/03/19 09:37:53;;;;;;;10.87;3.97;;;10.20;1.00;;;;;;6281121;28;20238;-56
2022/03/19 09:40:56;;;;;;;6.67;3.77;;;10.30;1.00;;;;;;6282850;28;20841;-55
2022/03/19 09:43:59;;;;;;;8.40;4.03;;;10.40;1.00;;;;;;6281615;28;20255;-54
2022/03/19 09:47:03;;;;;;;5.73;3.87;;;10.60;1.00;;;;;;6274387;28;20230;-57
2022/03/19 09:50:08;;;;;;;4.87;4.17;;;10.60;1.00;;;;;;6272556;28;20300;-55
2022/03/19 09:53:12;;;;;;;7.87;3.90;;;10.60;1.00;;;;;;6278464;28;20237;-54
2022/03/19 09:56:16;;;;;;;5.80;4.00;;;10.80;1.00;;;;;;6283731;28;20380;-56
2022/03/19 09:59:19;;;;;;;4.83;4.20;;;10.90;1.00;;;;;;6274024;28;20452;-56
2022/03/19 10:02:22;;;;;;;5.90;3.90;;;10.90;1.00;;;;;;6271834;28;20323;-56
2022/03/19 10:08:57;;;;;;;8.23;4.30;;;11.10;1.00;;;;;;6277648;28;20221;-55
2022/03/19 10:12:03;;;;;;;9.43;4.30;;;11.10;1.00;;;;;;6276961;28;20229;-54
2022/03/19 10:15:09;;;;;;;4.83;4.10;;;11.20;1.00;;;;;;6278780;28;20233;-56
2022/03/19 10:18:12;;;;;;;5.17;4.40;;;11.30;1.00;;;;;;6269318;28;20323;-55
2022/03/19 10:21:18;;;;;;;5.63;4.27;;;11.20;1.00;;;;;;6282413;28;20244;-55
2022/03/19 10:24:25;;;;;;;7.13;4.20;;;11.20;1.00;;;;;;6283097;28;20388;-55
2022/03/19 10:27:32;;;;;;;6.50;4.20;;;11.30;1.00;;;;;;6281694;28;20343;-56
2022/03/19 10:30:36;;;;;;;7.37;4.40;;;11.50;1.00;;;;;;6283101;28;20707;-56
2022/03/19 10:33:39;;;;;;;8.90;4.33;;;11.60;1.00;;;;;;6284625;28;20290;-54
2022/03/19 10:36:45;;;;;;;5.57;4.23;;;11.60;1.00;;;;;;6285551;28;20221;-54
2022/03/19 10:39:48;;;;;;;5.07;4.13;;;11.90;1.00;;;;;;6288001;28;20286;-54
2022/03/19 10:42:57;;;;;;;4.53;4.10;;;12.00;1.00;;;;;;6275479;28;20340;-54
2022/03/19 10:46:02;;;;;;;7.03;5.17;;;12.00;1.00;;;;;;6274554;28;20234;-56
2022/03/19 10:49:12;;;;;;;6.20;4.87;;;11.80;1.00;;;;;;6281823;28;20246;-54
2022/03/19 10:52:17;;;;;;;4.93;4.47;;;11.90;1.00;;;;;;6286377;28;20297;-54
2022/03/19 10:55:21;;;;;;;6.90;4.40;;;11.80;1.00;;;;;;6283187;28;20249;-55
2022/03/19 10:58:23;;;;;;;4.73;4.30;;;11.90;1.00;;;;;;6282003;28;20320;-55
2022/03/19 11:01:42;;;;;;;6.83;5.10;;;11.80;1.00;;;;;;6285379;28;20240;-55
2022/03/19 11:04:48;;;;;;;6.27;4.90;;;11.60;1.00;;;;;;6285320;28;20240;-54
2022/03/19 11:07:53;;;;;;;9.73;5.57;;;11.60;1.00;;;;;;6282933;28;20612;-54
2022/03/19 11:10:58;;;;;;;10.83;5.20;;;11.60;1.00;;;;;;6283380;28;20282;-54
2022/03/19 11:14:03;;;;;;;7.77;5.33;;;11.70;1.00;;;;;;6283677;28;20237;-54
2022/03/19 11:17:25;;;;;;;6.97;5.87;;;11.90;1.00;;;;;;6271715;28;20732;-56
2022/03/19 11:20:27;;;;;;;10.17;5.83;;;11.80;1.00;;;;;;6279108;28;20720;-58
2022/03/19 11:23:41;;;;;;;5.80;5.20;;;11.60;1.00;;;;;;6282822;28;20263;-55
2022/03/19 11:26:44;;;;;;;6.33;5.10;;;11.60;1.00;;;;;;6283819;28;20291;-56
2022/03/19 11:29:47;;;;;;;6.67;6.00;;;11.80;1.00;;;;;;6284521;28;20442;-56
2022/03/19 11:33:06;;;;;;;6.07;5.57;;;12.10;1.00;;;;;;6286038;28;20326;-56
2022/03/19 11:36:10;;;;;;;10.63;5.50;;;12.30;1.00;;;;;;6282509;28;20532;-55
2022/03/19 11:39:14;;;;;;;7.67;5.57;;;12.50;1.00;;;;;;6280281;28;20278;-55
2022/03/19 11:42:17;;;;;;;5.73;5.13;;;12.70;1.00;;;;;;6278388;28;20318;-54
2022/03/19 11:45:20;;;;;;;8.10;6.80;;;12.70;1.00;;;;;;6276421;28;20606;-55
2022/03/19 11:48:43;;;;;;;12.13;6.50;;;12.60;1.00;;;;;;6286191;28;20368;-53
2022/03/19 11:51:46;;;;;;;12.00;6.77;;;12.40;1.00;;;;;;6285853;28;20230;-55
2022/03/19 11:55:09;;;;;;;9.07;6.53;;;12.30;1.00;;;;;;6277039;28;20322;-54
2022/03/19 11:58:14;;;;;;;21.77;7.47;;;12.30;1.00;;;;;;6275100;28;20768;-56
2022/03/19 12:01:18;;;;;;;17.60;8.53;;;12.10;1.00;;;;;;6281345;28;20244;-55
2022/03/19 12:04:21;;;;;;;12.60;9.97;;;12.00;1.00;;;;;;6285612;28;20295;-56
2022/03/19 12:07:39;;;;;;;11.13;8.70;;;11.90;1.00;;;;;;6277887;28;20616;-56
2022/03/19 12:10:59;;;;;;;10.97;8.03;;;11.90;1.00;;;;;;6277245;28;20230;-56
2022/03/19 12:14:10;;;;;;;8.63;7.73;;;11.70;1.00;;;;;;6285683;28;20320;-56
2022/03/19 12:17:17;;;;;;;10.70;7.87;;;11.40;1.00;;;;;;6283744;28;20229;-55
2022/03/19 12:20:23;;;;;;;13.43;7.97;;;11.20;1.00;;;;;;6274389;28;20307;-56
2022/03/19 12:23:27;;;;;;;9.90;7.90;;;11.20;1.00;;;;;;6285181;28;20257;-55
2022/03/19 12:26:37;;;;;;;9.70;8.00;;;11.30;1.00;;;;;;6282052;28;20269;-55
2022/03/19 12:29:40;;;;;;;12.07;8.90;;;11.50;1.00;;;;;;6282992;28;20324;-55
2022/03/19 12:32:54;;;;;;;8.50;7.47;;;11.70;1.00;;;;;;6276279;28;20383;-55
2022/03/19 12:35:58;;;;;;;14.33;8.70;;;11.70;1.00;;;;;;6273614;28;20245;-55
2022/03/19 12:39:03;;;;;;;9.93;8.93;;;11.70;1.00;;;;;;6269726;28;20359;-55
2022/03/19 12:42:08;;;;;;;10.00;8.43;;;11.70;1.00;;;;;;6281353;28;20350;-56
2022/03/19 12:45:10;;;;;;;12.03;10.73;;;11.60;1.00;;;;;;6278255;28;20312;-54
2022/03/19 12:48:14;;;;;;;16.73;10.80;;;11.60;1.00;;;;;;6283347;28;20856;-55
2022/03/19 12:51:25;;;;;;;20.30;13.00;;;11.70;1.00;;;;;;6278778;28;20242;-56
2022/03/19 12:54:30;;;;;;;20.23;12.93;;;11.70;1.00;;;;;;6277752;28;20249;-56
2022/03/19 12:57:35;;;;;;;16.03;13.23;;;11.80;1.00;;;;;;6279004;28;20391;-55
2022/03/19 13:00:38;;;;;;;18.40;13.93;;;11.90;1.00;;;;;;6277031;28;20722;-56
2022/03/19 13:03:41;;;;;;;16.53;14.83;;;12.00;1.00;;;;;;6281680;28;20241;-56
2022/03/19 13:06:44;;;;;;;17.27;15.47;;;11.90;1.00;;;;;;6272928;28;20748;-54
2022/03/19 13:09:47;;;;;;;19.73;15.20;;;11.90;1.00;;;;;;6279779;28;20242;-56
2022/03/19 13:13:03;;;;;;;17.17;15.33;;;11.90;1.00;;;;;;6273260;28;20237;-56
2022/03/19 13:16:06;;;;;;;16.30;14.60;;;11.80;1.00;;;;;;6278116;28;20241;-56
2022/03/19 13:19:10;;;;;;;18.27;16.37;;;11.90;1.00;;;;;;6280468;28;20605;-56
2022/03/19 13:22:19;;;;;;;21.50;16.63;;;11.90;1.00;;;;;;6281252;28;20320;-56
2022/03/19 13:25:22;;;;;;;19.50;17.37;;;11.90;1.00;;;;;;6279072;28;20252;-55
2022/03/19 13:28:26;;;;;;;19.83;16.57;;;12.00;1.00;;;;;;6274694;28;20641;-55
2022/03/19 13:31:29;;;;;;;19.83;17.23;;;11.80;1.00;;;;;;6276157;28;20284;-56
2022/03/19 13:34:35;;;;;;;23.80;17.83;;;11.80;1.00;;;;;;6275703;28;20388;-56
2022/03/19 13:37:39;;;;;;;19.60;16.43;;;11.90;1.00;;;;;;6266239;28;21347;-55
2022/03/19 13:40:42;;;;;;;18.40;16.37;;;11.90;1.00;;;;;;6280878;28;20725;-56
2022/03/19 13:43:46;;;;;;;20.17;16.00;;;11.90;1.00;;;;;;6269429;28;20642;-56
2022/03/19 13:47:03;;;;;;;21.63;15.90;;;11.90;1.00;;;;;;6267397;28;20725;-55
2022/03/19 13:50:09;;;;;;;21.43;16.63;;;11.90;1.00;;;;;;6275511;28;20781;-56
2022/03/19 13:53:12;;;;;;;16.50;14.87;;;12.00;1.00;;;;;;6282890;28;20241;-55
2022/03/19 13:56:15;;;;;;;19.80;16.23;;;12.20;1.00;;;;;;6274216;28;20348;-56
2022/03/19 13:59:30;;;;;;;19.50;15.17;;;12.30;1.00;;;;;;6278615;28;20233;-54
2022/03/19 14:02:33;;;;;;;15.23;13.70;;;12.30;1.00;;;;;;6279843;28;20226;-55
2022/03/19 14:05:40;;;;;;;18.70;15.57;;;12.40;1.00;;;;;;6278328;28;20389;-56
2022/03/19 14:08:43;;;;;;;15.13;13.77;;;12.30;1.00;;;;;;6280733;28;20230;-56
2022/03/19 14:11:47;;;;;;;18.87;14.30;;;12.20;1.00;;;;;;6282175;28;20283;-54
2022/03/19 14:14:52;;;;;;;19.03;13.53;;;12.10;1.00;;;;;;6279044;28;20283;-56
2022/03/19 14:17:58;;;;;;;17.77;15.10;;;12.00;1.00;;;;;;6281011;28;20291;-55
2022/03/19 14:21:05;;;;;;;16.73;13.37;;;12.00;1.00;;;;;;6277056;28;20233;-56
2022/03/19 14:24:07;;;;;;;15.23;13.83;;;12.10;1.00;;;;;;6281374;28;20265;-56
2022/03/19 14:27:10;;;;;;;19.50;14.30;;;12.10;1.00;;;;;;6274675;28;20605;-55
2022/03/19 14:30:15;;;;;;;15.30;13.70;;;12.20;1.00;;;;;;6277696;28;20800;-54
2022/03/19 14:33:20;;;;;;;17.87;13.60;;;12.30;1.00;;;;;;6280957;28;20237;-55
2022/03/19 14:36:23;;;;;;;21.33;13.57;;;12.30;1.00;;;;;;6269704;28;20311;-54
2022/03/19 14:39:25;;;;;;;15.07;13.47;;;12.30;1.00;;;;;;6275027;28;20826;-55
2022/03/19 14:42:28;;;;;;;15.37;13.77;;;12.30;1.00;;;;;;6274526;28;20457;-55
2022/03/19 14:45:32;;;;;;;15.70;13.37;;;12.30;1.00;;;;;;6275851;28;20299;-55
2022/03/19 14:48:37;;;;;;;15.67;13.73;;;12.10;1.00;;;;;;6278963;28;20237;-55
2022/03/19 14:51:39;;;;;;;15.37;13.77;;;12.20;1.00;;;;;;6265108;28;20314;-55
2022/03/19 14:54:42;;;;;;;15.50;13.90;;;12.10;1.00;;;;;;6278932;28;20571;-55
2022/03/19 14:57:45;;;;;;;16.13;14.60;;;12.10;1.00;;;;;;6274663;28;20294;-56
2022/03/19 15:00:50;;;;;;;15.33;13.87;;;12.10;1.00;;;;;;6275792;28;20381;-54
2022/03/19 15:03:53;;;;;;;16.83;13.87;;;12.10;1.00;;;;;;6274246;28;20809;-54
2022/03/19 15:06:56;;;;;;;16.03;13.87;;;12.10;1.00;;;;;;6278523;28;20931;-54
2022/03/19 15:09:59;;;;;;;16.77;15.10;;;12.20;1.00;;;;;;6281120;28;20473;-56
2022/03/19 15:13:03;;;;;;;18.67;14.93;;;12.30;1.00;;;;;;6280332;28;20244;-56
2022/03/19 15:16:08;;;;;;;16.83;15.13;;;12.20;1.00;;;;;;6281963;28;20310;-55
2022/03/19 15:19:11;;;;;;;19.67;14.73;;;12.10;1.00;;;;;;6276844;28;20510;-54
2022/03/19 15:22:14;;;;;;;17.07;15.40;;;12.00;1.00;;;;;;6279145;28;20368;-55
2022/03/19 15:25:24;;;;;;;18.20;16.37;;;12.00;1.00;;;;;;6284948;28;20271;-55
2022/03/19 15:28:27;;;;;;;19.23;15.47;;;12.00;1.00;;;;;;6277969;28;20236;-57
2022/03/19 15:31:32;;;;;;;17.30;15.60;;;11.90;1.00;;;;;;6282959;28;20248;-54
2022/03/19 15:34:34;;;;;;;16.53;14.73;;;11.90;1.00;;;;;;6275470;28;20716;-54
2022/03/19 15:37:38;;;;;;;18.63;15.10;;;11.80;1.00;;;;;;6275118;28;20483;-55
2022/03/19 15:40:41;;;;;;;16.83;15.13;;;11.60;1.00;;;;;;6280044;28;20745;-54
2022/03/19 15:43:44;;;;;;;19.77;16.47;;;11.50;1.00;;;;;;6281357;28;20332;-55
2022/03/19 15:46:48;;;;;;;20.70;16.77;;;11.40;1.00;;;;;;6279311;28;20623;-54
2022/03/19 15:49:56;;;;;;;17.70;15.77;;;11.20;1.00;;;;;;6280884;28;20230;-55
2022/03/19 15:52:58;;;;;;;17.30;15.57;;;11.20;1.00;;;;;;6284934;28;20834;-55
2022/03/19 15:56:01;;;;;;;24.37;15.23;;;11.10;1.00;;;;;;6280754;28;20247;-56
2022/03/19 15:59:04;;;;;;;17.60;15.90;;;11.00;1.00;;;;;;6275118;28;20229;-55
2022/03/19 16:02:08;;;;;;;18.23;16.33;;;11.00;1.00;;;;;;6280137;28;20777;-54
2022/03/19 16:05:12;;;;;;;20.03;15.43;;;10.90;1.00;;;;;;6281783;28;20241;-54
2022/03/19 16:08:14;;;;;;;23.87;16.77;;;10.90;1.00;;;;;;6280804;28;20241;-55
2022/03/19 16:11:17;;;;;;;30.80;16.43;;;10.90;1.00;;;;;;6274953;28;20289;-55
2022/03/19 16:14:20;;;;;;;19.67;16.50;;;10.80;1.00;;;;;;6284209;28;20314;-55
2022/03/19 16:17:24;;;;;;;18.80;16.80;;;10.80;1.00;;;;;;6282477;28;20612;-55
2022/03/19 16:20:27;;;;;;;17.40;15.80;;;10.70;1.00;;;;;;6280039;28;20285;-56
2022/03/19 16:23:30;;;;;;;19.83;16.43;;;10.60;1.00;;;;;;6278654;28;20226;-54
2022/03/19 16:26:33;;;;;;;19.73;17.13;;;10.60;1.00;;;;;;6283261;28;20352;-56